Aeroporto :
LOGIN :

Iscrizione | Disclaimer

   EN    FR    IT 

 










Sommario :    VFR   VFR Marginale   IFR   IFR Intensivo   IFR Molto Intensivo
Visibilità : 
Base nubi : 
>= 8 km
>= 3000ft
5 / 8 km
1000 / 3000 ft
1500m / 5 km
500 / 1000 ft
800 / 1500m
200 / 500 ft
< 800m
< 200 ft
Simboli :   Temporali  Nebbia  Neve Forte  Precipitazioni Forti  Vento > 20 kt
SIGMETs :   Varie  Temporali  Ghiacco  Turbolenza  Onda orograficha  Ceneri Vulcaniche






- Altitudine del aeroporto : 266 ft
- Codice IATA : NCL


EGNT - Newcastle

ULTIMO METAR :
  • 170950Z 33004KT 9999 SCT025 05/05 Q1013

METARs OBSOLETI :
  • 170920Z 34004KT 9999 FEW020 BKN035 05/05 Q1013
  • 170850Z 34005KT 9999 SCT038 05/05 Q1012
  • 170820Z 34004KT 9999 FEW010 BKN042 05/05 Q1012
  • 170750Z 34006KT 9999 SCT025 BKN042 05/05 Q1012
  • 170720Z 35006KT 250V010 9999 SCT018 BKN030 05/05 Q1011

TAF TAF EGNT
Valido dal 17 a 06 ore il 18 a 06 ore UTC


170501Z 1706/1806 34007KT 9999 SCT008 BKN030
TEMPO 1706/1709 6000 -RA FEW004 BKN008
PROB30
TEMPO 1706/1709 3000 RA BR BKN004
PROB30
TEMPO 1709/1806 6000 SHRA BKN008
ATIS : +44 191 214 3400



MetMap, La meteo Aeronautica in un colpo d'occhio ! - Copyright ORBIFLY Dicembre 2007 - Disclaimer

ORBIFLY MET'MAP TEAM :

Programmazione e sviluppo : Alexandra Zaïnal
Concezione e sviluppo : Baudouin d'Aumeries
Co-Programmazione e sviluppo : Marc-Olivier Méhu
Supporto tecnico e logistico : Manuel Goepfert
Aiuto per la traduzione : Arnaldo La Scala

Contatto : metmap@orbifly.com




FONTI E CREDITI :

   NOAA